createdAt,value
2022-12-31T00:00:15.688Z,32.58
2022-12-31T00:02:43.105Z,32.92
2022-12-31T00:05:10.777Z,32.75
2022-12-31T00:10:04.725Z,34.42
2022-12-31T00:12:32.064Z,34.45
2022-12-31T00:14:59.330Z,35.25
2022-12-31T00:17:26.653Z,36.08
2022-12-31T00:19:54.027Z,35.13
2022-12-31T00:22:21.277Z,36.10
2022-12-31T00:24:48.548Z,34.35
2022-12-31T00:27:16.360Z,35.65
2022-12-31T00:29:43.671Z,35.13
2022-12-31T00:32:10.860Z,36.15
2022-12-31T00:34:38.101Z,36.80
2022-12-31T00:37:05.394Z,35.75
2022-12-31T00:39:32.716Z,34.42
2022-12-31T00:41:59.967Z,35.33
2022-12-31T00:44:27.161Z,37.00
2022-12-31T00:46:54.465Z,35.00
2022-12-31T00:49:21.895Z,33.67
2022-12-31T00:51:49.654Z,32.75
2022-12-31T00:54:16.977Z,32.80
2022-12-31T00:56:44.181Z,33.00
2022-12-31T00:59:11.370Z,31.67
2022-12-31T01:01:39.978Z,33.15
2022-12-31T01:04:11.232Z,32.80
2022-12-31T01:06:38.997Z,33.63
2022-12-31T01:09:07.243Z,34.45
2022-12-31T01:11:34.646Z,33.88
2022-12-31T01:14:14.261Z,34.38
2022-12-31T01:16:46.156Z,34.70
2022-12-31T01:19:17.461Z,34.85
2022-12-31T01:21:45.877Z,35.05
2022-12-31T01:24:13.408Z,34.55
2022-12-31T01:26:41.136Z,32.70
2022-12-31T01:29:10.070Z,32.45
2022-12-31T01:31:38.098Z,32.45
2022-12-31T01:34:06.208Z,31.63
2022-12-31T01:36:35.367Z,31.30
2022-12-31T01:39:05.546Z,30.67
2022-12-31T01:41:36.070Z,30.00
2022-12-31T01:44:12.400Z,30.65
2022-12-31T01:47:02.508Z,31.02
2022-12-31T01:52:07.591Z,30.17
2022-12-31T01:54:40.165Z,30.10
2022-12-31T01:57:08.642Z,29.65
2022-12-31T01:59:36.233Z,32.22
2022-12-31T02:02:04.613Z,31.00
2022-12-31T02:04:33.122Z,32.58
2022-12-31T02:07:03.269Z,32.17
2022-12-31T02:09:31.480Z,29.42
2022-12-31T02:11:59.309Z,29.33
2022-12-31T02:14:36.542Z,28.70
2022-12-31T02:17:24.922Z,29.23
2022-12-31T02:20:30.666Z,30.20
2022-12-31T02:23:04.089Z,28.58
2022-12-31T02:25:37.632Z,26.70
2022-12-31T02:28:42.723Z,27.92
2022-12-31T02:31:18.880Z,26.70
2022-12-31T02:33:54.911Z,27.05
2022-12-31T02:36:30.084Z,26.88
2022-12-31T02:38:58.525Z,25.88
2022-12-31T02:41:44.531Z,27.58
2022-12-31T02:44:33.988Z,26.48
2022-12-31T02:47:07.337Z,25.33
2022-12-31T02:50:09.509Z,25.42
2022-12-31T02:53:12.695Z,25.38
2022-12-31T02:56:07.495Z,26.08
2022-12-31T02:58:59.519Z,27.40
2022-12-31T03:01:53.880Z,26.77
2022-12-31T03:04:34.522Z,27.27
2022-12-31T03:07:07.944Z,25.58
2022-12-31T03:09:36.266Z,26.73
2022-12-31T03:12:25.414Z,26.20
2022-12-31T03:14:53.150Z,27.17
2022-12-31T03:17:20.734Z,25.42
2022-12-31T03:20:06.515Z,25.35
2022-12-31T03:22:36.436Z,25.25
2022-12-31T03:27:56.549Z,25.90
2022-12-31T03:30:25.314Z,25.85
2022-12-31T03:32:53.835Z,26.37
2022-12-31T03:35:21.988Z,26.40
2022-12-31T03:37:50.333Z,25.65
2022-12-31T03:40:19.375Z,25.67
2022-12-31T03:42:46.793Z,26.63
2022-12-31T03:45:14.379Z,26.08
2022-12-31T03:47:41.711Z,26.05
2022-12-31T03:50:11.676Z,24.55
2022-12-31T03:52:39.008Z,24.75
2022-12-31T03:55:07.548Z,24.58
2022-12-31T03:57:35.021Z,25.13
2022-12-31T04:00:02.587Z,24.95
2022-12-31T04:02:31.982Z,25.98
2022-12-31T04:04:59.342Z,26.27
2022-12-31T04:07:26.632Z,24.95
2022-12-31T04:09:54.084Z,24.95
2022-12-31T04:12:21.464Z,24.23
2022-12-31T04:14:48.740Z,24.95
2022-12-31T04:17:16.006Z,24.88
2022-12-31T04:19:43.304Z,26.42
2022-12-31T04:22:11.458Z,26.50
2022-12-31T04:24:38.817Z,26.63
2022-12-31T04:27:08.049Z,25.85
2022-12-31T04:29:35.907Z,26.45
2022-12-31T04:32:05.364Z,24.75
2022-12-31T04:34:33.251Z,25.90
2022-12-31T04:37:00.576Z,24.73
2022-12-31T04:39:28.058Z,24.65
2022-12-31T04:41:55.462Z,25.35
2022-12-31T04:44:22.873Z,26.10
2022-12-31T04:46:50.102Z,26.05
2022-12-31T04:49:17.446Z,24.10
2022-12-31T04:51:44.703Z,24.48
2022-12-31T04:54:12.012Z,23.77
2022-12-31T04:56:39.289Z,26.15
2022-12-31T04:59:07.393Z,24.80
2022-12-31T05:01:36.776Z,24.15
2022-12-31T05:04:04.155Z,23.92
2022-12-31T05:06:31.428Z,24.50
2022-12-31T05:08:59.136Z,24.08
2022-12-31T05:11:26.508Z,25.33
2022-12-31T05:13:53.771Z,25.00
2022-12-31T05:16:21.129Z,23.23
2022-12-31T05:18:48.564Z,24.45
2022-12-31T05:21:21.190Z,23.48
2022-12-31T05:23:49.022Z,25.40
2022-12-31T05:26:17.278Z,23.42
2022-12-31T05:28:44.573Z,25.15
2022-12-31T05:31:12.095Z,23.70
2022-12-31T05:33:39.477Z,24.52
2022-12-31T05:36:07.648Z,23.08
2022-12-31T05:38:34.928Z,23.10
2022-12-31T05:41:05.550Z,22.48
2022-12-31T05:43:33.812Z,22.38
2022-12-31T05:46:02.362Z,24.45
2022-12-31T05:48:30.359Z,23.80
2022-12-31T05:50:58.672Z,23.75
2022-12-31T05:53:26.218Z,23.35
2022-12-31T05:55:53.603Z,22.70
2022-12-31T05:58:20.900Z,24.25
2022-12-31T06:00:48.352Z,23.38
2022-12-31T06:03:15.671Z,24.77
2022-12-31T06:05:43.112Z,22.80
2022-12-31T06:08:12.115Z,25.23
2022-12-31T06:10:40.577Z,23.20
2022-12-31T06:13:08.799Z,23.73
2022-12-31T06:15:39.716Z,22.15
2022-12-31T06:18:07.301Z,23.48
2022-12-31T06:20:37.853Z,25.73
2022-12-31T06:23:05.693Z,24.20
2022-12-31T06:25:35.542Z,24.42
2022-12-31T06:28:04.408Z,24.55
2022-12-31T06:30:32.425Z,23.55
2022-12-31T06:32:59.766Z,25.33
2022-12-31T06:35:27.405Z,25.40
2022-12-31T06:37:54.636Z,24.13
2022-12-31T06:40:22.000Z,25.55
2022-12-31T06:42:56.068Z,25.55
2022-12-31T06:45:27.583Z,24.83
2022-12-31T06:47:54.960Z,24.52
2022-12-31T06:50:22.206Z,25.25
2022-12-31T06:52:49.556Z,25.85
2022-12-31T06:55:17.101Z,27.38
2022-12-31T06:57:44.730Z,26.50
2022-12-31T07:00:13.655Z,25.10
2022-12-31T07:03:18.631Z,25.00
2022-12-31T07:05:56.412Z,25.25
2022-12-31T07:08:51.725Z,24.85
2022-12-31T07:11:24.215Z,23.95
2022-12-31T07:14:04.383Z,26.20
2022-12-31T07:17:04.547Z,28.85
2022-12-31T07:19:57.899Z,27.00
2022-12-31T07:22:25.727Z,29.08
2022-12-31T07:24:53.472Z,29.50
2022-12-31T07:27:29.563Z,28.27
2022-12-31T07:30:00.154Z,27.67
2022-12-31T07:32:59.851Z,27.50
2022-12-31T07:35:40.050Z,28.60
2022-12-31T07:38:28.665Z,28.30
2022-12-31T07:41:28.229Z,26.08
2022-12-31T07:44:30.101Z,25.08
2022-12-31T07:47:00.022Z,24.23
2022-12-31T07:51:56.641Z,21.10
2022-12-31T07:54:24.077Z,22.52
2022-12-31T07:56:51.951Z,21.38
2022-12-31T07:59:45.506Z,19.33
2022-12-31T08:02:24.135Z,19.67
2022-12-31T08:04:58.803Z,17.20
2022-12-31T08:07:41.458Z,17.38
2022-12-31T08:10:29.957Z,15.73
2022-12-31T08:13:02.348Z,17.55
2022-12-31T08:15:30.678Z,16.58
2022-12-31T08:17:58.408Z,16.77
2022-12-31T08:20:26.935Z,17.73
2022-12-31T08:23:03.133Z,18.30
2022-12-31T08:26:07.858Z,18.25
2022-12-31T08:29:08.948Z,17.63
2022-12-31T08:32:15.434Z,18.33
2022-12-31T08:34:48.727Z,18.38
2022-12-31T08:37:37.423Z,17.52
2022-12-31T08:40:14.353Z,19.08
2022-12-31T08:42:50.334Z,18.75
2022-12-31T08:45:35.954Z,20.52
2022-12-31T08:48:35.983Z,19.20
2022-12-31T08:51:04.245Z,18.98
2022-12-31T08:53:35.170Z,18.95
2022-12-31T08:56:13.082Z,18.40
2022-12-31T08:59:01.928Z,18.63
2022-12-31T09:01:41.454Z,19.05
2022-12-31T09:04:28.450Z,18.20
2022-12-31T09:07:02.437Z,16.75
2022-12-31T09:10:11.685Z,17.65
2022-12-31T09:12:53.538Z,16.95
2022-12-31T09:15:34.006Z,16.02
2022-12-31T09:18:01.614Z,15.13
2022-12-31T09:20:42.417Z,16.80
2022-12-31T09:23:12.516Z,16.30
2022-12-31T09:26:15.366Z,16.27
2022-12-31T09:28:52.293Z,14.88
2022-12-31T09:31:35.621Z,15.70
2022-12-31T09:34:14.909Z,16.23
2022-12-31T09:36:48.579Z,14.70
2022-12-31T09:39:42.142Z,16.08
2022-12-31T09:42:12.242Z,15.25
2022-12-31T09:45:17.061Z,15.60
2022-12-31T09:47:56.306Z,14.25
2022-12-31T09:50:56.616Z,13.95
2022-12-31T09:53:29.834Z,11.40
2022-12-31T09:56:20.388Z,11.02
2022-12-31T09:58:57.357Z,10.68
2022-12-31T10:01:46.036Z,10.95
2022-12-31T10:04:45.029Z,11.32
2022-12-31T10:07:24.280Z,10.00
2022-12-31T10:10:00.459Z,10.68
2022-12-31T10:12:33.701Z,9.30
2022-12-31T10:15:19.524Z,10.65
2022-12-31T10:17:55.928Z,9.30
2022-12-31T10:20:54.317Z,9.00
2022-12-31T10:23:52.340Z,8.43
2022-12-31T10:26:31.671Z,8.07
2022-12-31T10:29:44.987Z,9.15
2022-12-31T10:32:31.198Z,8.02
2022-12-31T10:35:02.490Z,7.50
2022-12-31T10:37:53.223Z,8.57
2022-12-31T10:40:42.381Z,7.90
2022-12-31T10:43:47.218Z,8.77
2022-12-31T10:46:36.590Z,8.43
2022-12-31T10:49:16.207Z,8.55
2022-12-31T10:52:25.643Z,8.95
2022-12-31T10:55:26.313Z,8.77
2022-12-31T10:58:17.909Z,9.25
2022-12-31T11:00:51.036Z,9.95
2022-12-31T11:03:49.703Z,9.55
2022-12-31T11:09:28.625Z,8.40
2022-12-31T11:12:29.811Z,8.80
2022-12-31T11:15:15.938Z,8.65
2022-12-31T11:17:52.341Z,8.32
2022-12-31T11:20:50.445Z,11.05
2022-12-31T11:24:01.062Z,9.10
2022-12-31T11:26:40.596Z,8.90
2022-12-31T11:29:29.633Z,9.05
2022-12-31T11:32:23.647Z,9.02
2022-12-31T11:35:12.156Z,8.85
2022-12-31T11:37:45.121Z,7.65
2022-12-31T11:40:21.751Z,8.15
2022-12-31T11:43:04.870Z,10.27
2022-12-31T11:46:02.580Z,6.68
2022-12-31T11:48:35.906Z,5.47
2022-12-31T11:51:22.008Z,5.40
2022-12-31T11:54:27.080Z,5.22
2022-12-31T11:57:04.677Z,6.30
2022-12-31T11:59:32.137Z,5.80
2022-12-31T12:02:25.096Z,5.57
2022-12-31T12:04:53.610Z,5.13
2022-12-31T12:07:24.094Z,5.95
2022-12-31T12:09:54.588Z,6.95
2022-12-31T12:12:22.475Z,6.13
2022-12-31T12:14:53.743Z,5.90
2022-12-31T12:17:32.569Z,6.20
2022-12-31T12:20:13.511Z,5.67
2022-12-31T12:22:52.487Z,6.70
2022-12-31T12:25:22.456Z,6.20
2022-12-31T12:27:49.701Z,5.88
2022-12-31T12:30:21.975Z,9.45
2022-12-31T12:33:01.379Z,7.88
2022-12-31T12:35:34.828Z,7.10
2022-12-31T12:38:05.582Z,6.18
2022-12-31T12:40:35.021Z,6.28
2022-12-31T12:43:02.952Z,6.72
2022-12-31T12:45:51.484Z,6.90
2022-12-31T12:48:28.924Z,6.88
2022-12-31T12:50:56.202Z,6.18
2022-12-31T12:53:32.486Z,6.93
2022-12-31T12:56:08.962Z,7.45
2022-12-31T12:58:54.726Z,7.32
2022-12-31T13:01:47.830Z,6.50
2022-12-31T13:04:35.209Z,6.65
2022-12-31T13:07:19.499Z,6.45
2022-12-31T13:10:20.631Z,6.15
2022-12-31T13:15:58.834Z,7.40
2022-12-31T13:19:09.596Z,10.93
2022-12-31T13:21:51.153Z,14.82
2022-12-31T13:24:53.545Z,14.73
2022-12-31T13:27:29.763Z,15.85
2022-12-31T13:30:01.563Z,19.85
2022-12-31T13:32:43.066Z,16.40
2022-12-31T13:35:45.722Z,17.73
2022-12-31T13:38:18.721Z,16.83
2022-12-31T13:40:57.124Z,17.17
2022-12-31T13:43:51.139Z,19.20
2022-12-31T13:46:44.310Z,19.63
2022-12-31T13:49:26.711Z,20.48
2022-12-31T13:52:18.889Z,20.23
2022-12-31T13:55:23.941Z,21.00
2022-12-31T13:58:09.436Z,22.30
2022-12-31T14:01:15.091Z,21.75
2022-12-31T14:03:59.377Z,20.08
2022-12-31T14:06:34.143Z,22.35
2022-12-31T14:09:01.720Z,20.63
2022-12-31T14:11:59.887Z,18.55
2022-12-31T14:14:54.527Z,19.20
2022-12-31T14:17:30.818Z,20.27
2022-12-31T14:20:21.262Z,18.63
2022-12-31T14:23:09.722Z,19.15
2022-12-31T14:25:42.836Z,18.77
2022-12-31T14:28:23.951Z,17.88
2022-12-31T14:31:00.503Z,17.52
2022-12-31T14:33:54.237Z,17.63
2022-12-31T14:36:46.438Z,18.00
2022-12-31T14:39:26.884Z,18.33
2022-12-31T14:42:13.599Z,19.58
2022-12-31T14:45:25.156Z,19.08
2022-12-31T14:48:10.812Z,19.38
2022-12-31T14:50:38.671Z,22.13
2022-12-31T14:53:07.526Z,21.60
2022-12-31T14:55:37.044Z,20.45
2022-12-31T14:58:29.623Z,20.48
2022-12-31T15:01:03.495Z,20.83
2022-12-31T15:03:30.897Z,21.23
2022-12-31T15:06:07.227Z,22.67
2022-12-31T15:08:56.058Z,22.80
2022-12-31T15:12:00.447Z,23.00
2022-12-31T15:14:56.730Z,22.17
2022-12-31T15:17:43.165Z,23.20
2022-12-31T15:20:48.133Z,22.58
2022-12-31T15:23:25.119Z,22.70
2022-12-31T15:26:02.517Z,23.85
2022-12-31T15:28:36.439Z,26.48
2022-12-31T15:31:20.979Z,26.83
2022-12-31T15:33:56.790Z,26.08
2022-12-31T15:36:30.449Z,23.90
2022-12-31T15:39:07.699Z,23.75
2022-12-31T15:42:03.190Z,28.70
2022-12-31T15:44:44.657Z,31.23
2022-12-31T15:47:26.065Z,22.08
2022-12-31T15:49:54.741Z,22.75
2022-12-31T15:52:44.075Z,23.15
2022-12-31T15:55:34.433Z,22.60
2022-12-31T15:58:06.105Z,22.65
2022-12-31T16:00:54.782Z,27.25
2022-12-31T16:03:28.170Z,30.75
2022-12-31T16:06:01.023Z,29.27
2022-12-31T16:08:34.943Z,28.77
2022-12-31T16:11:05.901Z,30.60
2022-12-31T16:13:37.166Z,31.65
2022-12-31T16:16:15.129Z,33.05
2022-12-31T16:18:44.204Z,33.45
2022-12-31T16:21:24.859Z,33.50
2022-12-31T16:23:57.747Z,35.20
2022-12-31T16:26:31.791Z,32.78
2022-12-31T16:29:04.532Z,33.08
2022-12-31T16:31:32.134Z,36.92
2022-12-31T16:34:12.394Z,34.75
2022-12-31T16:36:39.801Z,32.47
2022-12-31T16:39:37.657Z,30.42
2022-12-31T16:42:13.714Z,28.70
2022-12-31T16:44:41.819Z,30.58
2022-12-31T16:47:15.064Z,29.90
2022-12-31T16:49:42.943Z,27.35
2022-12-31T16:52:28.419Z,28.13
2022-12-31T16:54:57.279Z,33.22
2022-12-31T16:57:28.953Z,40.78
2022-12-31T17:00:04.917Z,37.80
2022-12-31T17:02:39.899Z,35.17
2022-12-31T17:05:25.063Z,32.78
2022-12-31T17:07:52.931Z,32.55
2022-12-31T17:10:24.492Z,30.23
2022-12-31T17:15:45.220Z,29.48
2022-12-31T17:18:20.645Z,30.47
2022-12-31T17:20:50.530Z,30.60
2022-12-31T17:23:31.732Z,29.02
2022-12-31T17:26:22.316Z,28.27
2022-12-31T17:28:52.317Z,31.13
2022-12-31T17:34:15.097Z,25.38
2022-12-31T17:36:58.011Z,28.20
2022-12-31T17:39:26.705Z,27.17
2022-12-31T17:41:57.785Z,26.77
2022-12-31T17:44:31.463Z,31.75
2022-12-31T17:46:58.956Z,33.92
2022-12-31T17:49:31.645Z,35.85
2022-12-31T17:51:59.075Z,35.92
2022-12-31T17:54:26.494Z,43.10
2022-12-31T17:56:54.254Z,41.38
2022-12-31T17:59:24.650Z,38.08
2022-12-31T18:01:52.121Z,35.92
2022-12-31T18:04:20.824Z,32.28
2022-12-31T18:06:48.279Z,33.35
2022-12-31T18:09:16.517Z,31.27
2022-12-31T18:11:44.998Z,31.02
2022-12-31T18:14:15.062Z,27.85
2022-12-31T18:16:42.619Z,31.23
2022-12-31T18:19:37.820Z,31.20
2022-12-31T18:22:02.303Z,32.67
2022-12-31T18:24:29.636Z,28.52
2022-12-31T18:26:56.888Z,26.05
2022-12-31T18:29:24.120Z,25.00
2022-12-31T18:31:51.703Z,22.73
2022-12-31T18:34:19.167Z,24.98
2022-12-31T18:36:46.583Z,25.27
2022-12-31T18:39:14.133Z,24.55
2022-12-31T18:41:45.902Z,24.13
2022-12-31T18:44:15.057Z,24.73
2022-12-31T18:46:43.019Z,22.13
2022-12-31T18:49:10.608Z,25.48
2022-12-31T18:51:37.941Z,30.40
2022-12-31T18:54:06.834Z,30.65
2022-12-31T18:56:34.150Z,28.55
2022-12-31T18:59:02.950Z,27.08
2022-12-31T19:01:33.104Z,26.02
2022-12-31T19:04:12.214Z,26.80
2022-12-31T19:06:39.872Z,26.67
2022-12-31T19:09:23.907Z,28.08
2022-12-31T19:11:54.826Z,33.97
2022-12-31T19:14:24.306Z,32.58
2022-12-31T19:16:53.346Z,31.45
2022-12-31T19:19:21.050Z,30.70
2022-12-31T19:21:48.312Z,29.40
2022-12-31T19:24:19.166Z,28.60
2022-12-31T19:26:46.654Z,33.42
2022-12-31T19:29:22.255Z,33.45
2022-12-31T19:31:49.781Z,33.70
2022-12-31T19:34:17.204Z,33.13
2022-12-31T19:36:44.962Z,34.65
2022-12-31T19:39:17.761Z,31.52
2022-12-31T19:41:45.933Z,33.20
2022-12-31T19:44:18.191Z,33.03
2022-12-31T19:46:46.849Z,34.55
2022-12-31T19:49:15.085Z,36.80
2022-12-31T19:51:42.459Z,36.67
2022-12-31T19:54:12.678Z,34.42
2022-12-31T19:56:40.171Z,35.15
2022-12-31T19:59:09.661Z,34.38
2022-12-31T20:01:37.494Z,36.95
2022-12-31T20:04:05.046Z,36.40
2022-12-31T20:06:32.385Z,34.50
2022-12-31T20:08:59.595Z,36.00
2022-12-31T20:11:26.918Z,36.63
2022-12-31T20:13:54.314Z,35.28
2022-12-31T20:16:24.033Z,34.38
2022-12-31T20:18:51.524Z,33.65
2022-12-31T20:21:21.791Z,33.30
2022-12-31T20:23:50.939Z,32.88
2022-12-31T20:26:19.076Z,32.40
2022-12-31T20:28:46.706Z,31.67
2022-12-31T20:31:16.816Z,31.08
2022-12-31T20:33:44.902Z,30.83
2022-12-31T20:36:14.167Z,31.10
2022-12-31T20:38:41.847Z,29.65
2022-12-31T20:41:15.287Z,28.52
2022-12-31T20:43:43.826Z,28.30
2022-12-31T20:46:31.445Z,25.65
2022-12-31T20:49:01.131Z,27.90
2022-12-31T20:51:31.261Z,25.92
2022-12-31T20:54:01.841Z,25.33
2022-12-31T20:56:32.543Z,26.45
2022-12-31T20:59:00.658Z,25.45
2022-12-31T21:01:41.809Z,24.80
2022-12-31T21:04:15.520Z,24.75
2022-12-31T21:06:43.102Z,24.50
2022-12-31T21:09:10.520Z,23.85
2022-12-31T21:11:56.260Z,27.15
2022-12-31T21:14:23.572Z,26.60
2022-12-31T21:16:50.875Z,28.52
2022-12-31T21:19:18.152Z,29.30
2022-12-31T21:21:45.441Z,28.95
2022-12-31T21:24:12.683Z,29.15
2022-12-31T21:26:39.884Z,28.23
2022-12-31T21:29:07.213Z,28.70
2022-12-31T21:31:34.584Z,29.50
2022-12-31T21:34:01.882Z,29.15
2022-12-31T21:36:29.315Z,28.48
2022-12-31T21:38:56.783Z,29.60
2022-12-31T21:41:47.096Z,29.80
2022-12-31T21:44:14.577Z,28.80
2022-12-31T21:47:00.887Z,28.42
2022-12-31T21:49:29.337Z,27.67
2022-12-31T21:52:28.907Z,25.60
2022-12-31T21:55:37.424Z,25.40
2022-12-31T22:01:10.371Z,25.02
2022-12-31T22:03:38.384Z,24.10
2022-12-31T22:06:13.187Z,23.63
2022-12-31T22:08:42.845Z,26.60
2022-12-31T22:11:11.912Z,27.33
2022-12-31T22:13:40.391Z,26.53
2022-12-31T22:16:08.934Z,26.83
2022-12-31T22:18:41.247Z,24.83
2022-12-31T22:21:18.455Z,24.70
2022-12-31T22:23:52.132Z,23.83
2022-12-31T22:26:22.354Z,22.98
2022-12-31T22:28:50.576Z,23.33
2022-12-31T22:31:24.801Z,21.90
2022-12-31T22:33:53.072Z,23.25
2022-12-31T22:36:21.800Z,22.17
2022-12-31T22:38:50.895Z,22.52
2022-12-31T22:41:20.819Z,24.52
2022-12-31T22:43:50.115Z,23.48
2022-12-31T22:46:20.294Z,23.42
2022-12-31T22:48:48.244Z,22.70
2022-12-31T22:51:16.795Z,22.73
2022-12-31T22:53:44.713Z,23.35
2022-12-31T22:56:14.626Z,24.58
2022-12-31T23:01:22.365Z,23.25
2022-12-31T23:03:51.453Z,24.30
2022-12-31T23:06:20.294Z,26.52
2022-12-31T23:09:06.107Z,44.90
2022-12-31T23:11:35.294Z,44.42
2022-12-31T23:14:21.629Z,58.72
2022-12-31T23:17:30.950Z,52.67
2022-12-31T23:20:13.440Z,56.08
2022-12-31T23:22:59.222Z,56.20
2022-12-31T23:25:26.729Z,50.35
2022-12-31T23:27:53.970Z,45.55
2022-12-31T23:30:21.336Z,44.13
2022-12-31T23:32:48.862Z,45.95
2022-12-31T23:35:16.439Z,41.47
2022-12-31T23:37:43.661Z,40.20
2022-12-31T23:40:17.217Z,39.72
2022-12-31T23:42:48.537Z,40.33
2022-12-31T23:45:15.943Z,39.83
2022-12-31T23:47:43.310Z,37.92
2022-12-31T23:50:10.632Z,36.15
2022-12-31T23:52:37.878Z,33.97
2022-12-31T23:55:05.287Z,32.72
2022-12-31T23:57:32.793Z,31.42
